sensor_id;sensor_type;location;lat;lon;timestamp;temperature;humidity
18426;DHT22;9340;48.756;9.226;2023-07-20T00:00:55;18.60;99.90
18426;DHT22;9340;48.756;9.226;2023-07-20T00:03:21;18.40;99.90
18426;DHT22;9340;48.756;9.226;2023-07-20T00:05:51;18.30;99.90
18426;DHT22;9340;48.756;9.226;2023-07-20T00:08:18;18.30;99.90
18426;DHT22;9340;48.756;9.226;2023-07-20T00:10:44;18.20;99.90
18426;DHT22;9340;48.756;9.226;2023-07-20T00:13:12;18.10;99.90
18426;DHT22;9340;48.756;9.226;2023-07-20T00:15:41;18.00;99.90
18426;DHT22;9340;48.756;9.226;2023-07-20T00:18:08;18.00;99.90
18426;DHT22;9340;48.756;9.226;2023-07-20T00:20:34;17.80;99.90
18426;DHT22;9340;48.756;9.226;2023-07-20T00:23:01;17.70;99.90
18426;DHT22;9340;48.756;9.226;2023-07-20T00:25:28;17.60;99.90
18426;DHT22;9340;48.756;9.226;2023-07-20T00:27:54;17.50;99.90
18426;DHT22;9340;48.756;9.226;2023-07-20T00:30:22;17.50;99.90
18426;DHT22;9340;48.756;9.226;2023-07-20T00:32:49;17.40;99.90
18426;DHT22;9340;48.756;9.226;2023-07-20T00:35:16;17.40;99.90
18426;DHT22;9340;48.756;9.226;2023-07-20T00:37:43;17.40;99.90
18426;DHT22;9340;48.756;9.226;2023-07-20T00:40:09;17.30;99.90
18426;DHT22;9340;48.756;9.226;2023-07-20T00:42:36;17.20;99.90
18426;DHT22;9340;48.756;9.226;2023-07-20T00:45:04;17.10;99.90
18426;DHT22;9340;48.756;9.226;2023-07-20T00:47:32;17.10;99.90
18426;DHT22;9340;48.756;9.226;2023-07-20T00:49:59;17.10;99.90
18426;DHT22;9340;48.756;9.226;2023-07-20T00:52:27;17.00;99.90
18426;DHT22;9340;48.756;9.226;2023-07-20T00:54:55;17.00;99.90
18426;DHT22;9340;48.756;9.226;2023-07-20T00:57:23;17.00;99.90
18426;DHT22;9340;48.756;9.226;2023-07-20T00:59:50;17.00;99.90
18426;DHT22;9340;48.756;9.226;2023-07-20T01:02:17;17.00;99.90
18426;DHT22;9340;48.756;9.226;2023-07-20T01:04:45;16.90;99.90
18426;DHT22;9340;48.756;9.226;2023-07-20T01:07:14;16.90;99.90
18426;DHT22;9340;48.756;9.226;2023-07-20T01:09:47;16.90;99.90
18426;DHT22;9340;48.756;9.226;2023-07-20T01:12:21;16.80;99.90
18426;DHT22;9340;48.756;9.226;2023-07-20T01:14:49;16.70;99.90
18426;DHT22;9340;48.756;9.226;2023-07-20T01:17:16;16.70;99.90
18426;DHT22;9340;48.756;9.226;2023-07-20T01:19:44;16.60;99.90
18426;DHT22;9340;48.756;9.226;2023-07-20T01:22:21;16.60;99.90
18426;DHT22;9340;48.756;9.226;2023-07-20T01:25:11;16.50;99.90
18426;DHT22;9340;48.756;9.226;2023-07-20T01:28:00;16.50;99.90
18426;DHT22;9340;48.756;9.226;2023-07-20T01:30:47;16.40;99.90
18426;DHT22;9340;48.756;9.226;2023-07-20T01:33:19;16.30;99.90
18426;DHT22;9340;48.756;9.226;2023-07-20T01:35:51;16.30;99.90
18426;DHT22;9340;48.756;9.226;2023-07-20T01:38:19;16.20;99.90
18426;DHT22;9340;48.756;9.226;2023-07-20T01:40:46;16.10;99.90
18426;DHT22;9340;48.756;9.226;2023-07-20T01:43:13;16.00;99.90
18426;DHT22;9340;48.756;9.226;2023-07-20T01:45:40;16.00;99.90
18426;DHT22;9340;48.756;9.226;2023-07-20T01:48:07;15.90;99.90
18426;DHT22;9340;48.756;9.226;2023-07-20T01:50:35;15.90;99.90
18426;DHT22;9340;48.756;9.226;2023-07-20T01:53:02;15.90;99.90
18426;DHT22;9340;48.756;9.226;2023-07-20T01:55:28;15.80;99.90
18426;DHT22;9340;48.756;9.226;2023-07-20T01:57:58;15.80;99.90
18426;DHT22;9340;48.756;9.226;2023-07-20T02:00:25;15.70;99.90
18426;DHT22;9340;48.756;9.226;2023-07-20T02:02:52;15.70;99.90
18426;DHT22;9340;48.756;9.226;2023-07-20T02:05:18;15.70;99.90
18426;DHT22;9340;48.756;9.226;2023-07-20T02:07:46;15.70;99.90
18426;DHT22;9340;48.756;9.226;2023-07-20T02:10:13;15.70;99.90
18426;DHT22;9340;48.756;9.226;2023-07-20T02:12:40;15.60;99.90
18426;DHT22;9340;48.756;9.226;2023-07-20T02:15:07;15.50;99.90
18426;DHT22;9340;48.756;9.226;2023-07-20T02:17:34;15.50;99.90
18426;DHT22;9340;48.756;9.226;2023-07-20T02:20:01;15.50;99.90
18426;DHT22;9340;48.756;9.226;2023-07-20T02:22:28;15.50;99.90
18426;DHT22;9340;48.756;9.226;2023-07-20T02:24:56;15.50;99.90
18426;DHT22;9340;48.756;9.226;2023-07-20T02:27:23;15.40;99.90
18426;DHT22;9340;48.756;9.226;2023-07-20T02:29:50;15.40;99.90
18426;DHT22;9340;48.756;9.226;2023-07-20T02:32:16;15.30;99.90
18426;DHT22;9340;48.756;9.226;2023-07-20T02:34:43;15.30;99.90
18426;DHT22;9340;48.756;9.226;2023-07-20T02:37:10;15.30;99.90
18426;DHT22;9340;48.756;9.226;2023-07-20T02:39:38;15.30;99.90
18426;DHT22;9340;48.756;9.226;2023-07-20T02:42:06;15.20;99.90
18426;DHT22;9340;48.756;9.226;2023-07-20T02:44:33;15.10;99.90
18426;DHT22;9340;48.756;9.226;2023-07-20T02:47:00;15.10;99.90
18426;DHT22;9340;48.756;9.226;2023-07-20T02:49:26;15.10;99.90
18426;DHT22;9340;48.756;9.226;2023-07-20T02:51:53;15.10;99.90
18426;DHT22;9340;48.756;9.226;2023-07-20T02:54:21;15.10;99.90
18426;DHT22;9340;48.756;9.226;2023-07-20T02:56:48;15.00;99.90
18426;DHT22;9340;48.756;9.226;2023-07-20T02:59:16;14.80;99.90
18426;DHT22;9340;48.756;9.226;2023-07-20T03:01:42;14.80;99.90
18426;DHT22;9340;48.756;9.226;2023-07-20T03:04:09;14.80;99.90
18426;DHT22;9340;48.756;9.226;2023-07-20T03:06:36;14.80;99.90
18426;DHT22;9340;48.756;9.226;2023-07-20T03:09:03;14.80;99.90
18426;DHT22;9340;48.756;9.226;2023-07-20T03:11:32;14.80;99.90
18426;DHT22;9340;48.756;9.226;2023-07-20T03:13:59;14.80;99.90
18426;DHT22;9340;48.756;9.226;2023-07-20T03:16:27;14.80;99.90
18426;DHT22;9340;48.756;9.226;2023-07-20T03:18:54;14.80;99.90
18426;DHT22;9340;48.756;9.226;2023-07-20T03:21:20;14.80;99.90
18426;DHT22;9340;48.756;9.226;2023-07-20T03:23:47;14.90;99.90
18426;DHT22;9340;48.756;9.226;2023-07-20T03:26:14;14.90;99.90
18426;DHT22;9340;48.756;9.226;2023-07-20T03:28:40;14.90;99.90
18426;DHT22;9340;48.756;9.226;2023-07-20T03:31:07;14.90;99.90
18426;DHT22;9340;48.756;9.226;2023-07-20T03:33:35;14.80;99.90
18426;DHT22;9340;48.756;9.226;2023-07-20T03:36:02;14.80;99.90
18426;DHT22;9340;48.756;9.226;2023-07-20T03:38:29;14.80;99.90
18426;DHT22;9340;48.756;9.226;2023-07-20T03:41:00;14.80;99.90
18426;DHT22;9340;48.756;9.226;2023-07-20T03:43:28;14.80;99.90
18426;DHT22;9340;48.756;9.226;2023-07-20T03:45:55;14.80;99.90
18426;DHT22;9340;48.756;9.226;2023-07-20T03:48:22;14.80;99.90
18426;DHT22;9340;48.756;9.226;2023-07-20T03:50:51;14.70;99.90
18426;DHT22;9340;48.756;9.226;2023-07-20T03:53:19;14.60;99.90
18426;DHT22;9340;48.756;9.226;2023-07-20T03:55:46;14.60;99.90
18426;DHT22;9340;48.756;9.226;2023-07-20T03:58:13;14.60;99.90
18426;DHT22;9340;48.756;9.226;2023-07-20T04:00:42;14.70;99.90
18426;DHT22;9340;48.756;9.226;2023-07-20T04:03:10;14.90;99.90
18426;DHT22;9340;48.756;9.226;2023-07-20T04:05:36;14.90;99.90
18426;DHT22;9340;48.756;9.226;2023-07-20T04:08:04;15.00;99.90
18426;DHT22;9340;48.756;9.226;2023-07-20T04:10:31;15.10;99.90
18426;DHT22;9340;48.756;9.226;2023-07-20T04:12:58;15.20;99.90
18426;DHT22;9340;48.756;9.226;2023-07-20T04:15:24;15.20;99.90
18426;DHT22;9340;48.756;9.226;2023-07-20T04:17:51;15.30;99.90
18426;DHT22;9340;48.756;9.226;2023-07-20T04:20:18;15.30;99.90
18426;DHT22;9340;48.756;9.226;2023-07-20T04:22:45;15.40;99.90
18426;DHT22;9340;48.756;9.226;2023-07-20T04:25:13;15.40;99.90
18426;DHT22;9340;48.756;9.226;2023-07-20T04:27:39;15.50;99.90
18426;DHT22;9340;48.756;9.226;2023-07-20T04:30:07;15.50;99.90
18426;DHT22;9340;48.756;9.226;2023-07-20T04:32:34;15.50;99.90
18426;DHT22;9340;48.756;9.226;2023-07-20T04:35:06;15.60;99.90
18426;DHT22;9340;48.756;9.226;2023-07-20T04:37:34;15.80;99.90
18426;DHT22;9340;48.756;9.226;2023-07-20T04:40:01;15.90;99.90
18426;DHT22;9340;48.756;9.226;2023-07-20T04:42:30;16.10;99.90
18426;DHT22;9340;48.756;9.226;2023-07-20T04:44:56;16.20;99.90
18426;DHT22;9340;48.756;9.226;2023-07-20T04:47:23;16.40;99.90
18426;DHT22;9340;48.756;9.226;2023-07-20T04:49:49;16.60;99.90
18426;DHT22;9340;48.756;9.226;2023-07-20T04:52:16;16.80;99.90
18426;DHT22;9340;48.756;9.226;2023-07-20T04:54:43;16.90;99.90
18426;DHT22;9340;48.756;9.226;2023-07-20T04:57:11;17.10;99.90
18426;DHT22;9340;48.756;9.226;2023-07-20T04:59:39;17.30;99.90
18426;DHT22;9340;48.756;9.226;2023-07-20T05:02:06;17.50;99.90
18426;DHT22;9340;48.756;9.226;2023-07-20T05:04:33;17.60;99.90
18426;DHT22;9340;48.756;9.226;2023-07-20T05:07:00;17.80;99.90
18426;DHT22;9340;48.756;9.226;2023-07-20T05:09:26;18.00;99.90
18426;DHT22;9340;48.756;9.226;2023-07-20T05:11:53;18.10;99.90
18426;DHT22;9340;48.756;9.226;2023-07-20T05:14:19;18.20;99.90
18426;DHT22;9340;48.756;9.226;2023-07-20T05:16:47;18.30;99.90
18426;DHT22;9340;48.756;9.226;2023-07-20T05:19:14;18.40;99.90
18426;DHT22;9340;48.756;9.226;2023-07-20T05:21:41;18.60;99.90
18426;DHT22;9340;48.756;9.226;2023-07-20T05:24:07;18.70;99.90
18426;DHT22;9340;48.756;9.226;2023-07-20T05:26:34;18.80;99.90
18426;DHT22;9340;48.756;9.226;2023-07-20T05:29:01;18.90;99.90
18426;DHT22;9340;48.756;9.226;2023-07-20T05:31:27;19.00;99.90
18426;DHT22;9340;48.756;9.226;2023-07-20T05:33:57;19.10;99.90
18426;DHT22;9340;48.756;9.226;2023-07-20T05:36:24;19.30;99.90
18426;DHT22;9340;48.756;9.226;2023-07-20T05:38:51;19.60;99.90
18426;DHT22;9340;48.756;9.226;2023-07-20T05:41:18;20.30;99.90
18426;DHT22;9340;48.756;9.226;2023-07-20T05:43:45;20.90;99.90
18426;DHT22;9340;48.756;9.226;2023-07-20T05:46:11;21.00;99.90
18426;DHT22;9340;48.756;9.226;2023-07-20T05:48:38;21.20;99.90
18426;DHT22;9340;48.756;9.226;2023-07-20T05:51:06;21.60;99.90
18426;DHT22;9340;48.756;9.226;2023-07-20T05:53:33;22.20;99.90
18426;DHT22;9340;48.756;9.226;2023-07-20T05:55:59;22.60;99.90
18426;DHT22;9340;48.756;9.226;2023-07-20T05:58:26;23.20;99.90
18426;DHT22;9340;48.756;9.226;2023-07-20T06:00:53;23.70;99.90
18426;DHT22;9340;48.756;9.226;2023-07-20T06:03:20;23.80;99.90
18426;DHT22;9340;48.756;9.226;2023-07-20T06:05:47;24.00;99.90
18426;DHT22;9340;48.756;9.226;2023-07-20T06:08:15;24.10;99.90
18426;DHT22;9340;48.756;9.226;2023-07-20T06:10:42;24.10;99.90
18426;DHT22;9340;48.756;9.226;2023-07-20T06:13:08;23.90;99.90
18426;DHT22;9340;48.756;9.226;2023-07-20T06:15:36;23.60;99.90
18426;DHT22;9340;48.756;9.226;2023-07-20T06:18:03;23.30;99.90
18426;DHT22;9340;48.756;9.226;2023-07-20T06:20:30;22.90;99.90
18426;DHT22;9340;48.756;9.226;2023-07-20T06:22:57;22.80;99.90
18426;DHT22;9340;48.756;9.226;2023-07-20T06:25:25;22.60;99.90
18426;DHT22;9340;48.756;9.226;2023-07-20T06:27:51;22.60;99.90
18426;DHT22;9340;48.756;9.226;2023-07-20T06:30:19;22.50;99.90
18426;DHT22;9340;48.756;9.226;2023-07-20T06:32:45;22.50;99.90
18426;DHT22;9340;48.756;9.226;2023-07-20T06:35:12;22.50;99.90
18426;DHT22;9340;48.756;9.226;2023-07-20T06:37:39;22.50;99.90
18426;DHT22;9340;48.756;9.226;2023-07-20T06:40:07;22.50;99.90
18426;DHT22;9340;48.756;9.226;2023-07-20T06:42:37;22.40;99.90
18426;DHT22;9340;48.756;9.226;2023-07-20T06:45:04;22.30;99.90
18426;DHT22;9340;48.756;9.226;2023-07-20T06:47:31;22.00;99.90
18426;DHT22;9340;48.756;9.226;2023-07-20T06:49:57;22.10;99.90
18426;DHT22;9340;48.756;9.226;2023-07-20T06:52:24;21.90;99.90
18426;DHT22;9340;48.756;9.226;2023-07-20T06:54:51;21.70;99.90
18426;DHT22;9340;48.756;9.226;2023-07-20T06:57:18;21.80;99.90
18426;DHT22;9340;48.756;9.226;2023-07-20T06:59:46;21.90;99.90
18426;DHT22;9340;48.756;9.226;2023-07-20T07:02:13;22.00;99.90
18426;DHT22;9340;48.756;9.226;2023-07-20T07:04:41;22.00;99.90
18426;DHT22;9340;48.756;9.226;2023-07-20T07:07:08;22.00;99.90
18426;DHT22;9340;48.756;9.226;2023-07-20T07:09:35;22.30;99.90
18426;DHT22;9340;48.756;9.226;2023-07-20T07:12:02;22.50;99.90
18426;DHT22;9340;48.756;9.226;2023-07-20T07:14:29;22.50;99.90
18426;DHT22;9340;48.756;9.226;2023-07-20T07:16:57;22.40;99.90
18426;DHT22;9340;48.756;9.226;2023-07-20T07:19:23;22.30;99.90
18426;DHT22;9340;48.756;9.226;2023-07-20T07:21:50;22.10;99.90
18426;DHT22;9340;48.756;9.226;2023-07-20T07:24:17;22.00;99.90
18426;DHT22;9340;48.756;9.226;2023-07-20T07:26:44;21.90;99.90
18426;DHT22;9340;48.756;9.226;2023-07-20T07:29:11;21.80;99.90
18426;DHT22;9340;48.756;9.226;2023-07-20T07:31:38;21.90;99.90
18426;DHT22;9340;48.756;9.226;2023-07-20T07:34:06;21.90;99.90
18426;DHT22;9340;48.756;9.226;2023-07-20T07:36:33;21.90;99.90
18426;DHT22;9340;48.756;9.226;2023-07-20T07:39:00;21.90;99.90
18426;DHT22;9340;48.756;9.226;2023-07-20T07:41:27;21.90;99.90
18426;DHT22;9340;48.756;9.226;2023-07-20T07:43:53;21.90;99.90
18426;DHT22;9340;48.756;9.226;2023-07-20T07:46:20;22.00;99.90
18426;DHT22;9340;48.756;9.226;2023-07-20T07:48:47;21.70;99.90
18426;DHT22;9340;48.756;9.226;2023-07-20T07:51:16;21.70;99.90
18426;DHT22;9340;48.756;9.226;2023-07-20T07:53:43;21.60;99.90
18426;DHT22;9340;48.756;9.226;2023-07-20T07:56:10;21.40;99.90
18426;DHT22;9340;48.756;9.226;2023-07-20T07:58:36;21.40;99.90
18426;DHT22;9340;48.756;9.226;2023-07-20T08:01:04;21.50;99.90
18426;DHT22;9340;48.756;9.226;2023-07-20T08:03:30;21.60;99.90
18426;DHT22;9340;48.756;9.226;2023-07-20T08:05:57;21.60;99.90
18426;DHT22;9340;48.756;9.226;2023-07-20T08:08:26;21.80;99.90
18426;DHT22;9340;48.756;9.226;2023-07-20T08:10:53;22.00;99.90
18426;DHT22;9340;48.756;9.226;2023-07-20T08:13:21;22.10;99.90
18426;DHT22;9340;48.756;9.226;2023-07-20T08:15:50;22.40;99.90
18426;DHT22;9340;48.756;9.226;2023-07-20T08:18:20;22.90;99.90
18426;DHT22;9340;48.756;9.226;2023-07-20T08:20:47;23.40;99.90
18426;DHT22;9340;48.756;9.226;2023-07-20T08:23:14;23.30;99.90
18426;DHT22;9340;48.756;9.226;2023-07-20T08:25:43;22.90;99.90
18426;DHT22;9340;48.756;9.226;2023-07-20T08:28:10;22.80;99.90
18426;DHT22;9340;48.756;9.226;2023-07-20T08:30:41;23.20;99.90
18426;DHT22;9340;48.756;9.226;2023-07-20T08:33:09;23.70;99.90
18426;DHT22;9340;48.756;9.226;2023-07-20T08:35:36;24.10;99.90
18426;DHT22;9340;48.756;9.226;2023-07-20T08:38:03;24.60;99.90
18426;DHT22;9340;48.756;9.226;2023-07-20T08:40:31;24.80;99.90
18426;DHT22;9340;48.756;9.226;2023-07-20T08:42:59;24.90;99.90
18426;DHT22;9340;48.756;9.226;2023-07-20T08:45:27;25.00;99.90
18426;DHT22;9340;48.756;9.226;2023-07-20T08:47:56;25.00;99.90
18426;DHT22;9340;48.756;9.226;2023-07-20T08:50:25;25.00;99.90
18426;DHT22;9340;48.756;9.226;2023-07-20T08:52:52;25.20;99.90
18426;DHT22;9340;48.756;9.226;2023-07-20T08:55:20;25.50;99.90
18426;DHT22;9340;48.756;9.226;2023-07-20T08:57:50;25.30;99.90
18426;DHT22;9340;48.756;9.226;2023-07-20T09:00:24;24.80;99.90
18426;DHT22;9340;48.756;9.226;2023-07-20T09:02:53;24.30;99.90
18426;DHT22;9340;48.756;9.226;2023-07-20T09:05:20;23.90;99.90
18426;DHT22;9340;48.756;9.226;2023-07-20T09:07:47;23.50;99.90
18426;DHT22;9340;48.756;9.226;2023-07-20T09:10:14;23.40;99.90
18426;DHT22;9340;48.756;9.226;2023-07-20T09:12:42;23.60;99.90
18426;DHT22;9340;48.756;9.226;2023-07-20T09:15:11;23.80;99.90
18426;DHT22;9340;48.756;9.226;2023-07-20T09:17:39;24.00;99.90
18426;DHT22;9340;48.756;9.226;2023-07-20T09:20:07;24.30;99.90
18426;DHT22;9340;48.756;9.226;2023-07-20T09:22:37;24.70;99.90
18426;DHT22;9340;48.756;9.226;2023-07-20T09:25:06;24.90;99.90
18426;DHT22;9340;48.756;9.226;2023-07-20T09:27:38;25.00;99.90
18426;DHT22;9340;48.756;9.226;2023-07-20T09:30:07;25.20;99.90
18426;DHT22;9340;48.756;9.226;2023-07-20T09:32:40;25.30;99.90
18426;DHT22;9340;48.756;9.226;2023-07-20T09:35:13;25.40;99.90
18426;DHT22;9340;48.756;9.226;2023-07-20T09:37:46;25.60;99.90
18426;DHT22;9340;48.756;9.226;2023-07-20T09:40:15;25.90;99.90
18426;DHT22;9340;48.756;9.226;2023-07-20T09:42:43;26.00;99.90
18426;DHT22;9340;48.756;9.226;2023-07-20T09:45:10;26.30;99.90
18426;DHT22;9340;48.756;9.226;2023-07-20T09:47:39;26.40;99.90
18426;DHT22;9340;48.756;9.226;2023-07-20T09:50:07;26.30;99.90
18426;DHT22;9340;48.756;9.226;2023-07-20T09:52:37;26.20;99.90
18426;DHT22;9340;48.756;9.226;2023-07-20T09:55:06;26.00;99.90
18426;DHT22;9340;48.756;9.226;2023-07-20T09:57:34;25.80;99.90
18426;DHT22;9340;48.756;9.226;2023-07-20T10:00:02;25.30;99.90
18426;DHT22;9340;48.756;9.226;2023-07-20T10:02:33;24.60;99.90
18426;DHT22;9340;48.756;9.226;2023-07-20T10:05:03;24.50;99.90
18426;DHT22;9340;48.756;9.226;2023-07-20T10:07:31;24.90;99.90
18426;DHT22;9340;48.756;9.226;2023-07-20T10:09:59;25.30;99.90
18426;DHT22;9340;48.756;9.226;2023-07-20T10:12:29;25.90;99.90
18426;DHT22;9340;48.756;9.226;2023-07-20T10:15:02;26.10;99.90
18426;DHT22;9340;48.756;9.226;2023-07-20T10:17:31;26.50;99.90
18426;DHT22;9340;48.756;9.226;2023-07-20T10:20:02;26.70;99.90
18426;DHT22;9340;48.756;9.226;2023-07-20T10:22:35;26.40;99.90
18426;DHT22;9340;48.756;9.226;2023-07-20T10:25:03;26.10;99.90
18426;DHT22;9340;48.756;9.226;2023-07-20T10:27:30;25.80;99.90
18426;DHT22;9340;48.756;9.226;2023-07-20T10:29:58;25.70;99.90
18426;DHT22;9340;48.756;9.226;2023-07-20T10:32:28;25.60;99.90
18426;DHT22;9340;48.756;9.226;2023-07-20T10:34:56;25.90;99.90
18426;DHT22;9340;48.756;9.226;2023-07-20T10:38:01;26.40;99.90
18426;DHT22;9340;48.756;9.226;2023-07-20T10:40:30;26.60;99.90
18426;DHT22;9340;48.756;9.226;2023-07-20T10:43:03;26.40;99.90
18426;DHT22;9340;48.756;9.226;2023-07-20T10:45:39;26.10;99.90
18426;DHT22;9340;48.756;9.226;2023-07-20T10:48:12;26.00;99.90
18426;DHT22;9340;48.756;9.226;2023-07-20T10:50:40;26.00;99.90
18426;DHT22;9340;48.756;9.226;2023-07-20T10:53:15;26.00;99.90
18426;DHT22;9340;48.756;9.226;2023-07-20T10:55:43;26.10;99.90
18426;DHT22;9340;48.756;9.226;2023-07-20T10:58:12;26.20;99.90
18426;DHT22;9340;48.756;9.226;2023-07-20T11:00:55;26.30;99.90
18426;DHT22;9340;48.756;9.226;2023-07-20T11:03:30;26.30;99.90
18426;DHT22;9340;48.756;9.226;2023-07-20T11:05:57;26.20;99.90
18426;DHT22;9340;48.756;9.226;2023-07-20T11:08:41;26.30;99.90
18426;DHT22;9340;48.756;9.226;2023-07-20T11:11:25;26.50;99.90
18426;DHT22;9340;48.756;9.226;2023-07-20T11:13:56;26.40;99.90
18426;DHT22;9340;48.756;9.226;2023-07-20T11:16:40;26.00;99.90
18426;DHT22;9340;48.756;9.226;2023-07-20T11:19:16;26.00;99.90
18426;DHT22;9340;48.756;9.226;2023-07-20T11:21:44;26.20;99.90
18426;DHT22;9340;48.756;9.226;2023-07-20T11:24:13;26.30;99.90
18426;DHT22;9340;48.756;9.226;2023-07-20T11:26:43;26.30;99.90
18426;DHT22;9340;48.756;9.226;2023-07-20T11:29:10;26.20;99.90
18426;DHT22;9340;48.756;9.226;2023-07-20T11:31:38;26.10;99.90
18426;DHT22;9340;48.756;9.226;2023-07-20T11:34:05;26.30;99.20
18426;DHT22;9340;48.756;9.226;2023-07-20T11:36:33;26.30;99.20
18426;DHT22;9340;48.756;9.226;2023-07-20T11:39:00;26.00;97.10
18426;DHT22;9340;48.756;9.226;2023-07-20T11:41:32;25.80;98.00
18426;DHT22;9340;48.756;9.226;2023-07-20T11:44:01;25.70;98.80
18426;DHT22;9340;48.756;9.226;2023-07-20T11:46:28;25.80;99.90
18426;DHT22;9340;48.756;9.226;2023-07-20T11:48:57;26.10;97.80
18426;DHT22;9340;48.756;9.226;2023-07-20T11:51:25;26.20;99.90
18426;DHT22;9340;48.756;9.226;2023-07-20T11:53:53;26.50;99.90
18426;DHT22;9340;48.756;9.226;2023-07-20T11:56:19;26.70;99.60
18426;DHT22;9340;48.756;9.226;2023-07-20T11:58:48;26.80;98.60
18426;DHT22;9340;48.756;9.226;2023-07-20T12:01:15;26.60;97.50
18426;DHT22;9340;48.756;9.226;2023-07-20T12:03:42;26.50;97.10
18426;DHT22;9340;48.756;9.226;2023-07-20T12:06:10;26.20;98.30
18426;DHT22;9340;48.756;9.226;2023-07-20T12:08:38;25.90;97.70
18426;DHT22;9340;48.756;9.226;2023-07-20T12:11:06;25.80;98.00
18426;DHT22;9340;48.756;9.226;2023-07-20T12:13:37;25.80;97.50
18426;DHT22;9340;48.756;9.226;2023-07-20T12:16:10;25.90;98.40
18426;DHT22;9340;48.756;9.226;2023-07-20T12:18:38;26.20;98.00
18426;DHT22;9340;48.756;9.226;2023-07-20T12:21:06;26.30;96.20
18426;DHT22;9340;48.756;9.226;2023-07-20T12:23:37;26.40;96.80
18426;DHT22;9340;48.756;9.226;2023-07-20T12:26:07;26.50;96.90
18426;DHT22;9340;48.756;9.226;2023-07-20T12:28:38;26.70;97.40
18426;DHT22;9340;48.756;9.226;2023-07-20T12:31:07;26.70;96.30
18426;DHT22;9340;48.756;9.226;2023-07-20T12:33:37;26.90;96.10
18426;DHT22;9340;48.756;9.226;2023-07-20T12:36:05;26.50;94.20
18426;DHT22;9340;48.756;9.226;2023-07-20T12:38:31;26.20;96.00
18426;DHT22;9340;48.756;9.226;2023-07-20T12:41:00;26.10;95.10
18426;DHT22;9340;48.756;9.226;2023-07-20T12:43:26;26.10;94.60
18426;DHT22;9340;48.756;9.226;2023-07-20T12:45:53;25.90;95.20
18426;DHT22;9340;48.756;9.226;2023-07-20T12:48:20;26.00;96.80
18426;DHT22;9340;48.756;9.226;2023-07-20T12:50:48;26.10;95.30
18426;DHT22;9340;48.756;9.226;2023-07-20T12:53:17;26.20;96.10
18426;DHT22;9340;48.756;9.226;2023-07-20T12:55:44;26.00;96.20
18426;DHT22;9340;48.756;9.226;2023-07-20T12:58:12;26.00;97.10
18426;DHT22;9340;48.756;9.226;2023-07-20T13:00:39;25.90;98.80
18426;DHT22;9340;48.756;9.226;2023-07-20T13:03:06;25.80;96.60
18426;DHT22;9340;48.756;9.226;2023-07-20T13:05:34;26.00;98.00
18426;DHT22;9340;48.756;9.226;2023-07-20T13:08:03;26.10;98.10
18426;DHT22;9340;48.756;9.226;2023-07-20T13:10:31;26.20;96.40
18426;DHT22;9340;48.756;9.226;2023-07-20T13:12:58;26.10;96.20
18426;DHT22;9340;48.756;9.226;2023-07-20T13:15:29;26.10;94.40
18426;DHT22;9340;48.756;9.226;2023-07-20T13:17:57;26.00;96.70
18426;DHT22;9340;48.756;9.226;2023-07-20T13:20:25;26.00;95.20
18426;DHT22;9340;48.756;9.226;2023-07-20T13:22:52;25.70;95.10
18426;DHT22;9340;48.756;9.226;2023-07-20T13:25:20;25.40;94.30
18426;DHT22;9340;48.756;9.226;2023-07-20T13:27:47;25.70;96.80
18426;DHT22;9340;48.756;9.226;2023-07-20T13:30:14;26.00;97.00
18426;DHT22;9340;48.756;9.226;2023-07-20T13:32:42;26.10;96.00
18426;DHT22;9340;48.756;9.226;2023-07-20T13:35:10;25.90;97.80
18426;DHT22;9340;48.756;9.226;2023-07-20T13:37:37;25.70;95.40
18426;DHT22;9340;48.756;9.226;2023-07-20T13:40:05;25.80;98.30
18426;DHT22;9340;48.756;9.226;2023-07-20T13:42:35;26.00;98.80
18426;DHT22;9340;48.756;9.226;2023-07-20T13:45:03;26.30;98.10
18426;DHT22;9340;48.756;9.226;2023-07-20T13:47:30;26.40;96.90
18426;DHT22;9340;48.756;9.226;2023-07-20T13:49:57;26.60;96.70
18426;DHT22;9340;48.756;9.226;2023-07-20T13:52:23;26.70;95.30
18426;DHT22;9340;48.756;9.226;2023-07-20T13:54:50;26.80;94.70
18426;DHT22;9340;48.756;9.226;2023-07-20T13:57:17;26.90;95.00
18426;DHT22;9340;48.756;9.226;2023-07-20T13:59:45;26.90;94.00
18426;DHT22;9340;48.756;9.226;2023-07-20T14:02:14;26.90;92.70
18426;DHT22;9340;48.756;9.226;2023-07-20T14:04:40;26.80;96.50
18426;DHT22;9340;48.756;9.226;2023-07-20T14:07:07;26.70;93.10
18426;DHT22;9340;48.756;9.226;2023-07-20T14:09:34;26.40;92.90
18426;DHT22;9340;48.756;9.226;2023-07-20T14:12:01;26.50;93.50
18426;DHT22;9340;48.756;9.226;2023-07-20T14:14:28;26.30;93.70
18426;DHT22;9340;48.756;9.226;2023-07-20T14:16:57;26.20;94.00
18426;DHT22;9340;48.756;9.226;2023-07-20T14:19:23;26.30;95.10
18426;DHT22;9340;48.756;9.226;2023-07-20T14:21:51;26.30;95.30
18426;DHT22;9340;48.756;9.226;2023-07-20T14:24:19;26.30;94.10
18426;DHT22;9340;48.756;9.226;2023-07-20T14:26:46;26.20;95.40
18426;DHT22;9340;48.756;9.226;2023-07-20T14:29:13;26.10;92.60
18426;DHT22;9340;48.756;9.226;2023-07-20T14:31:40;26.00;93.50
18426;DHT22;9340;48.756;9.226;2023-07-20T14:34:09;25.90;94.60
18426;DHT22;9340;48.756;9.226;2023-07-20T14:36:36;26.00;93.90
18426;DHT22;9340;48.756;9.226;2023-07-20T14:39:03;26.20;93.60
18426;DHT22;9340;48.756;9.226;2023-07-20T14:41:30;26.30;94.60
18426;DHT22;9340;48.756;9.226;2023-07-20T14:44:02;26.30;94.00
18426;DHT22;9340;48.756;9.226;2023-07-20T14:46:29;26.30;91.90
18426;DHT22;9340;48.756;9.226;2023-07-20T14:48:57;26.10;92.30
18426;DHT22;9340;48.756;9.226;2023-07-20T14:51:26;26.20;94.30
18426;DHT22;9340;48.756;9.226;2023-07-20T14:53:57;26.30;94.00
18426;DHT22;9340;48.756;9.226;2023-07-20T14:56:24;26.20;92.10
18426;DHT22;9340;48.756;9.226;2023-07-20T14:58:51;26.20;93.00
18426;DHT22;9340;48.756;9.226;2023-07-20T15:01:18;26.30;95.00
18426;DHT22;9340;48.756;9.226;2023-07-20T15:03:44;26.50;91.60
18426;DHT22;9340;48.756;9.226;2023-07-20T15:06:11;26.60;91.70
18426;DHT22;9340;48.756;9.226;2023-07-20T15:08:39;26.80;92.00
18426;DHT22;9340;48.756;9.226;2023-07-20T15:11:06;26.80;91.00
18426;DHT22;9340;48.756;9.226;2023-07-20T15:13:33;26.90;91.30
18426;DHT22;9340;48.756;9.226;2023-07-20T15:16:00;26.80;91.80
18426;DHT22;9340;48.756;9.226;2023-07-20T15:18:26;26.90;91.90
18426;DHT22;9340;48.756;9.226;2023-07-20T15:20:53;27.00;91.60
18426;DHT22;9340;48.756;9.226;2023-07-20T15:23:20;27.00;90.50
18426;DHT22;9340;48.756;9.226;2023-07-20T15:25:48;27.00;91.10
18426;DHT22;9340;48.756;9.226;2023-07-20T15:28:15;27.00;92.40
18426;DHT22;9340;48.756;9.226;2023-07-20T15:30:42;27.10;92.80
18426;DHT22;9340;48.756;9.226;2023-07-20T15:33:09;27.10;90.90
18426;DHT22;9340;48.756;9.226;2023-07-20T15:35:36;27.10;90.70
18426;DHT22;9340;48.756;9.226;2023-07-20T15:38:03;26.90;91.00
18426;DHT22;9340;48.756;9.226;2023-07-20T15:40:29;26.70;90.60
18426;DHT22;9340;48.756;9.226;2023-07-20T15:42:58;26.70;91.60
18426;DHT22;9340;48.756;9.226;2023-07-20T15:45:27;26.50;91.00
18426;DHT22;9340;48.756;9.226;2023-07-20T15:47:54;26.50;91.90
18426;DHT22;9340;48.756;9.226;2023-07-20T15:50:21;26.50;91.20